createdAt,value
2023-05-22T00:00:22.135Z,6.50
2023-05-22T00:03:24.885Z,6.43
2023-05-22T00:06:28.369Z,6.65
2023-05-22T00:09:30.855Z,7.10
2023-05-22T00:12:33.621Z,6.90
2023-05-22T00:15:36.299Z,7.00
2023-05-22T00:18:42.478Z,5.80
2023-05-22T00:21:46.972Z,6.93
2023-05-22T00:24:49.931Z,7.13
2023-05-22T00:27:52.553Z,7.05
2023-05-22T00:30:55.322Z,7.25
2023-05-22T00:33:59.420Z,6.63
2023-05-22T00:37:02.003Z,6.82
2023-05-22T00:40:06.065Z,6.20
2023-05-22T00:43:11.819Z,6.43
2023-05-22T00:46:14.596Z,6.53
2023-05-22T00:49:17.251Z,6.70
2023-05-22T00:52:20.020Z,6.80
2023-05-22T00:55:22.763Z,6.80
2023-05-22T00:58:27.040Z,6.55
2023-05-22T01:04:37.402Z,6.20
2023-05-22T01:07:40.273Z,6.28
2023-05-22T01:10:43.092Z,6.10
2023-05-22T01:14:11.385Z,6.63
2023-05-22T01:17:23.750Z,7.00
2023-05-22T01:20:37.026Z,6.55
2023-05-22T01:24:37.406Z,6.13
2023-05-22T01:28:26.565Z,6.63
2023-05-22T01:31:32.470Z,6.43
2023-05-22T01:34:37.328Z,6.70
2023-05-22T01:37:41.296Z,6.88
2023-05-22T01:40:46.662Z,6.47
2023-05-22T01:43:49.750Z,6.60
2023-05-22T01:46:52.585Z,7.15
2023-05-22T01:49:55.244Z,6.57
2023-05-22T01:53:33.195Z,6.28
2023-05-22T01:56:52.481Z,6.82
2023-05-22T02:00:10.046Z,6.50
2023-05-22T02:03:22.424Z,6.43
2023-05-22T02:06:28.887Z,6.97
2023-05-22T02:09:32.377Z,6.75
2023-05-22T02:12:36.147Z,6.82
2023-05-22T02:15:40.371Z,6.40
2023-05-22T02:18:44.537Z,7.32
2023-05-22T02:21:47.115Z,6.70
2023-05-22T02:24:50.243Z,6.53
2023-05-22T02:27:53.459Z,6.63
2023-05-22T02:30:56.693Z,6.22
2023-05-22T02:33:59.334Z,6.78
2023-05-22T02:37:04.853Z,7.25
2023-05-22T02:40:08.535Z,6.97
2023-05-22T02:43:11.089Z,7.28
2023-05-22T02:46:14.949Z,5.97
2023-05-22T02:49:18.083Z,6.57
2023-05-22T02:52:21.088Z,6.32
2023-05-22T02:55:23.657Z,6.82
2023-05-22T02:58:27.456Z,6.80
2023-05-22T03:01:30.665Z,7.00
2023-05-22T03:04:34.193Z,7.60
2023-05-22T03:07:37.229Z,7.20
2023-05-22T03:10:40.256Z,7.10
2023-05-22T03:13:42.982Z,7.05
2023-05-22T03:16:45.743Z,6.97
2023-05-22T03:19:48.530Z,7.03
2023-05-22T03:22:51.145Z,6.43
2023-05-22T03:25:53.794Z,6.85
2023-05-22T03:28:59.449Z,6.32
2023-05-22T03:32:03.992Z,6.45
2023-05-22T03:35:07.339Z,6.80
2023-05-22T03:38:10.402Z,6.40
2023-05-22T03:41:13.164Z,6.65
2023-05-22T03:44:16.313Z,6.57
2023-05-22T03:47:19.679Z,6.57
2023-05-22T03:50:23.340Z,5.95
2023-05-22T03:53:26.181Z,6.07
2023-05-22T03:56:29.050Z,6.32
2023-05-22T03:59:31.750Z,5.55
2023-05-22T04:02:39.015Z,5.93
2023-05-22T04:05:41.732Z,6.38
2023-05-22T04:08:46.294Z,6.70
2023-05-22T04:11:48.889Z,5.65
2023-05-22T04:14:51.927Z,6.35
2023-05-22T04:17:55.215Z,5.80
2023-05-22T04:20:57.910Z,6.35
2023-05-22T04:24:07.592Z,6.00
2023-05-22T04:27:10.409Z,5.22
2023-05-22T04:30:14.416Z,6.35
2023-05-22T04:33:18.246Z,5.25
2023-05-22T04:36:26.208Z,5.43
2023-05-22T04:39:28.837Z,5.32
2023-05-22T04:45:37.437Z,4.93
2023-05-22T04:48:40.405Z,5.68
2023-05-22T04:51:43.434Z,5.78
2023-05-22T04:54:47.189Z,5.38
2023-05-22T04:57:49.740Z,5.53
2023-05-22T05:00:52.713Z,5.82
2023-05-22T05:03:55.424Z,5.15
2023-05-22T05:06:58.763Z,5.80
2023-05-22T05:10:01.395Z,5.82
2023-05-22T05:13:04.119Z,4.95
2023-05-22T05:16:08.230Z,4.80
2023-05-22T05:19:10.918Z,5.20
2023-05-22T05:22:13.597Z,5.72
2023-05-22T05:25:16.703Z,5.18
2023-05-22T05:28:19.915Z,5.20
2023-05-22T05:31:23.412Z,5.30
2023-05-22T05:34:44.227Z,8.52
2023-05-22T05:37:59.225Z,8.13
2023-05-22T05:41:03.193Z,8.18
2023-05-22T05:44:06.222Z,6.13
2023-05-22T05:47:09.272Z,7.20
2023-05-22T05:50:12.688Z,9.43
2023-05-22T05:53:15.967Z,5.38
2023-05-22T05:56:38.545Z,5.57
2023-05-22T05:59:41.482Z,5.18
2023-05-22T06:03:04.550Z,4.50
2023-05-22T06:06:26.260Z,4.60
2023-05-22T06:09:54.879Z,4.80
2023-05-22T06:13:25.154Z,5.00
2023-05-22T06:16:28.384Z,4.75
2023-05-22T06:19:34.232Z,4.80
2023-05-22T06:22:57.711Z,4.97
2023-05-22T06:26:02.500Z,5.20
2023-05-22T06:32:11.569Z,5.25
2023-05-22T06:35:16.383Z,5.55
2023-05-22T06:38:19.732Z,5.50
2023-05-22T06:41:23.026Z,5.72
2023-05-22T06:44:28.483Z,4.80
2023-05-22T06:47:33.207Z,4.80
2023-05-22T06:50:36.089Z,4.57
2023-05-22T06:53:39.246Z,5.10
2023-05-22T06:56:47.099Z,4.35
2023-05-22T06:59:54.003Z,5.03
2023-05-22T07:03:24.374Z,4.40
2023-05-22T07:06:53.400Z,4.10
2023-05-22T07:09:57.629Z,5.05
2023-05-22T07:13:00.474Z,7.70
2023-05-22T07:16:04.804Z,5.43
2023-05-22T07:19:08.888Z,4.72
2023-05-22T07:22:11.826Z,4.15
2023-05-22T07:25:15.630Z,4.43
2023-05-22T07:28:18.654Z,4.10
2023-05-22T07:31:31.733Z,4.22
2023-05-22T07:37:40.172Z,3.90
2023-05-22T07:40:44.802Z,4.13
2023-05-22T07:43:47.635Z,3.92
2023-05-22T07:46:54.531Z,4.22
2023-05-22T07:49:58.540Z,4.30
2023-05-22T07:53:01.304Z,4.38
2023-05-22T07:56:06.997Z,3.92
2023-05-22T07:59:13.574Z,4.07
2023-05-22T08:02:18.690Z,3.85
2023-05-22T08:05:21.427Z,3.88
2023-05-22T08:08:24.232Z,4.30
2023-05-22T08:11:26.865Z,4.50
2023-05-22T08:14:30.452Z,3.90
2023-05-22T08:17:33.109Z,3.72
2023-05-22T08:20:36.194Z,4.68
2023-05-22T08:23:38.890Z,4.15
2023-05-22T08:26:43.271Z,3.92
2023-05-22T08:29:46.384Z,3.70
2023-05-22T08:32:48.963Z,3.78
2023-05-22T08:35:51.574Z,3.95
2023-05-22T08:38:54.735Z,4.53
2023-05-22T08:41:57.434Z,4.05
2023-05-22T08:45:01.236Z,4.28
2023-05-22T08:48:06.186Z,4.05
2023-05-22T08:51:13.450Z,4.22
2023-05-22T08:54:19.486Z,4.38
2023-05-22T08:57:23.231Z,3.78
2023-05-22T09:00:26.132Z,5.68
2023-05-22T09:03:35.122Z,4.75
2023-05-22T09:06:46.548Z,4.60
2023-05-22T09:09:49.782Z,4.07
2023-05-22T09:13:09.607Z,4.45
2023-05-22T09:16:13.336Z,4.20
2023-05-22T09:19:17.407Z,4.25
2023-05-22T09:22:22.388Z,4.35
2023-05-22T09:25:27.704Z,4.35
2023-05-22T09:28:35.402Z,4.43
2023-05-22T09:31:42.956Z,4.43
2023-05-22T09:34:47.280Z,4.25
2023-05-22T09:37:49.991Z,3.95
2023-05-22T09:40:57.004Z,4.43
2023-05-22T09:44:01.655Z,3.72
2023-05-22T09:47:06.817Z,4.13
2023-05-22T09:50:11.116Z,4.22
2023-05-22T09:53:16.446Z,4.20
2023-05-22T09:56:30.746Z,4.80
2023-05-22T09:59:40.327Z,4.15
2023-05-22T10:02:49.252Z,4.07
2023-05-22T10:05:54.129Z,4.15
2023-05-22T10:09:02.576Z,4.20
2023-05-22T10:12:07.428Z,5.32
2023-05-22T10:15:13.583Z,4.05
2023-05-22T10:18:17.572Z,3.92
2023-05-22T10:21:22.574Z,4.15
2023-05-22T10:24:25.577Z,4.10
2023-05-22T10:27:28.254Z,4.30
2023-05-22T10:30:45.424Z,4.18
2023-05-22T10:34:13.343Z,4.93
2023-05-22T10:37:24.828Z,4.78
2023-05-22T10:40:32.615Z,4.13
2023-05-22T10:43:42.211Z,4.03
2023-05-22T10:46:52.105Z,4.20
2023-05-22T10:50:08.912Z,4.47
2023-05-22T10:53:28.182Z,4.40
2023-05-22T10:56:36.121Z,4.20
2023-05-22T10:59:38.744Z,4.40
2023-05-22T11:02:44.588Z,4.32
2023-05-22T11:05:53.790Z,4.72
2023-05-22T11:08:57.748Z,4.28
2023-05-22T11:12:18.276Z,4.65
2023-05-22T11:15:31.472Z,3.88
2023-05-22T11:18:34.350Z,3.90
2023-05-22T11:21:44.979Z,5.00
2023-05-22T11:24:47.910Z,3.95
2023-05-22T11:27:52.767Z,4.30
2023-05-22T11:30:56.345Z,4.15
2023-05-22T11:37:04.470Z,3.78
2023-05-22T11:40:08.792Z,4.47
2023-05-22T11:43:11.433Z,4.53
2023-05-22T11:46:15.126Z,4.40
2023-05-22T11:49:18.321Z,4.20
2023-05-22T11:52:21.092Z,4.35
2023-05-22T11:55:24.309Z,4.82
2023-05-22T11:58:30.382Z,4.72
2023-05-22T12:01:33.722Z,4.13
2023-05-22T12:04:37.918Z,4.22
2023-05-22T12:07:40.754Z,4.35
2023-05-22T12:10:54.328Z,4.53
2023-05-22T12:14:06.135Z,4.25
2023-05-22T12:17:08.982Z,3.83
2023-05-22T12:20:13.800Z,4.35
2023-05-22T12:23:25.321Z,4.50
2023-05-22T12:26:27.903Z,4.07
2023-05-22T12:29:30.455Z,4.85
2023-05-22T12:32:33.201Z,4.20
2023-05-22T12:35:38.588Z,4.22
2023-05-22T12:38:41.570Z,4.18
2023-05-22T12:44:47.366Z,4.30
2023-05-22T12:47:50.133Z,4.05
2023-05-22T12:50:54.436Z,4.47
2023-05-22T12:53:58.280Z,4.25
2023-05-22T12:57:01.153Z,4.10
2023-05-22T13:03:09.064Z,3.88
2023-05-22T13:06:12.521Z,4.10
2023-05-22T13:09:17.006Z,5.13
2023-05-22T13:12:19.710Z,4.10
2023-05-22T13:15:22.746Z,4.00
2023-05-22T13:18:25.243Z,4.13
2023-05-22T13:21:27.968Z,3.90
2023-05-22T13:24:30.666Z,4.30
2023-05-22T13:27:33.823Z,4.50
2023-05-22T13:30:36.640Z,4.30
2023-05-22T13:33:40.660Z,4.20
2023-05-22T13:36:43.685Z,4.43
2023-05-22T13:39:46.803Z,4.85
2023-05-22T13:42:51.949Z,4.35
2023-05-22T13:45:55.024Z,4.70
2023-05-22T13:52:00.002Z,4.43
2023-05-22T13:55:02.575Z,4.80
2023-05-22T13:58:05.293Z,4.47
2023-05-22T14:01:09.726Z,4.35
2023-05-22T14:04:12.486Z,4.38
2023-05-22T14:07:15.831Z,4.47
2023-05-22T14:13:21.555Z,4.53
2023-05-22T14:16:24.230Z,4.85
2023-05-22T14:19:28.057Z,4.95
2023-05-22T14:22:34.256Z,4.65
2023-05-22T14:25:44.726Z,4.72
2023-05-22T14:28:48.295Z,4.85
2023-05-22T14:31:51.981Z,4.45
2023-05-22T14:34:54.868Z,4.60
2023-05-22T14:37:57.529Z,4.45
2023-05-22T14:41:01.241Z,4.60
2023-05-22T14:44:03.866Z,4.50
2023-05-22T14:47:06.525Z,5.22
2023-05-22T14:50:18.917Z,4.80
2023-05-22T14:53:22.839Z,4.38
2023-05-22T14:56:26.559Z,4.97
2023-05-22T14:59:29.171Z,5.05
2023-05-22T15:02:33.303Z,4.72
2023-05-22T15:05:36.150Z,4.72
2023-05-22T15:08:38.918Z,4.82
2023-05-22T15:11:45.639Z,4.63
2023-05-22T15:14:48.193Z,4.25
2023-05-22T15:17:51.001Z,4.82
2023-05-22T15:20:53.632Z,5.32
2023-05-22T15:23:56.425Z,5.20
2023-05-22T15:26:59.257Z,5.18
2023-05-22T15:30:02.997Z,4.53
2023-05-22T15:33:05.896Z,5.47
2023-05-22T15:36:08.624Z,4.70
2023-05-22T15:39:11.280Z,5.30
2023-05-22T15:42:14.027Z,4.93
2023-05-22T15:45:16.568Z,5.00
2023-05-22T15:48:19.186Z,4.72
2023-05-22T15:51:21.775Z,6.00
2023-05-22T15:54:24.460Z,5.15
2023-05-22T15:57:30.943Z,5.68
2023-05-22T16:00:39.033Z,5.25
2023-05-22T16:03:42.003Z,5.80
2023-05-22T16:06:44.776Z,5.70
2023-05-22T16:09:47.516Z,5.00
2023-05-22T16:12:50.108Z,5.22
2023-05-22T16:15:52.779Z,5.22
2023-05-22T16:18:55.422Z,5.13
2023-05-22T16:21:58.183Z,4.78
2023-05-22T16:25:01.026Z,4.95
2023-05-22T16:28:05.616Z,5.43
2023-05-22T16:31:08.203Z,5.07
2023-05-22T16:34:10.897Z,5.22
2023-05-22T16:37:13.517Z,5.78
2023-05-22T16:40:16.114Z,4.90
2023-05-22T16:43:19.368Z,5.32
2023-05-22T16:46:22.332Z,5.60
2023-05-22T16:49:25.430Z,5.32
2023-05-22T16:52:28.160Z,5.40
2023-05-22T16:55:30.779Z,5.60
2023-05-22T16:58:33.542Z,5.25
2023-05-22T17:01:36.574Z,5.70
2023-05-22T17:04:40.259Z,5.07
2023-05-22T17:07:42.957Z,5.30
2023-05-22T17:10:45.659Z,5.30
2023-05-22T17:13:48.468Z,5.63
2023-05-22T17:16:51.325Z,5.68
2023-05-22T17:19:53.990Z,5.53
2023-05-22T17:22:56.571Z,5.20
2023-05-22T17:25:59.187Z,4.90
2023-05-22T17:29:01.853Z,5.30
2023-05-22T17:32:06.454Z,5.45
2023-05-22T17:35:09.601Z,5.82
2023-05-22T17:38:12.219Z,6.20
2023-05-22T17:41:14.979Z,6.38
2023-05-22T17:44:17.651Z,6.00
2023-05-22T17:47:20.187Z,5.47
2023-05-22T17:50:22.860Z,6.30
2023-05-22T17:53:26.579Z,5.95
2023-05-22T17:56:29.210Z,7.90
2023-05-22T17:59:33.190Z,5.40
2023-05-22T18:05:43.544Z,5.70
2023-05-22T18:08:47.794Z,6.13
2023-05-22T18:11:52.690Z,6.25
2023-05-22T18:14:55.312Z,5.80
2023-05-22T18:17:58.224Z,5.32
2023-05-22T18:21:02.470Z,6.97
2023-05-22T18:24:05.483Z,7.82
2023-05-22T18:27:08.505Z,7.32
2023-05-22T18:30:12.383Z,11.25
2023-05-22T18:33:16.646Z,6.90
2023-05-22T18:36:19.563Z,6.82
2023-05-22T18:39:22.636Z,6.65
2023-05-22T18:42:25.753Z,7.78
2023-05-22T18:45:28.675Z,7.43
2023-05-22T18:48:33.215Z,7.57
2023-05-22T18:51:37.250Z,7.03
2023-05-22T18:54:40.130Z,7.70
2023-05-22T18:57:42.986Z,9.30
2023-05-22T19:00:46.790Z,7.30
2023-05-22T19:06:54.619Z,7.25
2023-05-22T19:09:58.541Z,7.97
2023-05-22T19:16:06.358Z,7.22
2023-05-22T19:19:11.690Z,8.45
2023-05-22T19:22:17.931Z,70.60
2023-05-22T19:25:21.897Z,45.40
2023-05-22T19:28:26.180Z,13.30
2023-05-22T19:31:33.359Z,9.48
2023-05-22T19:34:36.549Z,9.93
2023-05-22T19:37:46.170Z,9.43
2023-05-22T19:41:13.550Z,9.77
2023-05-22T19:44:21.648Z,10.05
2023-05-22T19:47:28.280Z,9.65
2023-05-22T19:50:38.052Z,8.63
2023-05-22T19:53:42.702Z,8.75
2023-05-22T19:56:51.968Z,8.90
2023-05-22T19:59:56.630Z,9.15
2023-05-22T20:03:03.392Z,10.65
2023-05-22T20:06:19.124Z,9.25
2023-05-22T20:09:23.824Z,8.07
2023-05-22T20:12:29.776Z,7.95
2023-05-22T20:15:35.623Z,8.57
2023-05-22T20:18:41.186Z,8.52
2023-05-22T20:21:48.366Z,8.50
2023-05-22T20:24:53.233Z,8.70
2023-05-22T20:27:55.917Z,9.60
2023-05-22T20:30:59.089Z,8.38
2023-05-22T20:34:02.176Z,9.55
2023-05-22T20:37:06.573Z,10.15
2023-05-22T20:40:09.774Z,9.68
2023-05-22T20:43:14.047Z,22.48
2023-05-22T20:46:17.233Z,38.13
2023-05-22T20:49:21.052Z,18.58
2023-05-22T20:52:24.675Z,16.88
2023-05-22T20:55:27.306Z,8.68
2023-05-22T20:58:30.108Z,7.70
2023-05-22T21:01:32.934Z,7.63
2023-05-22T21:04:35.580Z,7.90
2023-05-22T21:07:40.479Z,6.82
2023-05-22T21:10:43.090Z,7.20
2023-05-22T21:13:45.740Z,6.43
2023-05-22T21:16:48.407Z,7.13
2023-05-22T21:19:51.028Z,6.75
2023-05-22T21:22:53.647Z,6.75
2023-05-22T21:25:56.227Z,6.63
2023-05-22T21:28:58.843Z,5.93
2023-05-22T21:32:01.420Z,6.15
2023-05-22T21:35:04.191Z,5.97
2023-05-22T21:38:07.192Z,5.88
2023-05-22T21:41:11.666Z,6.55
2023-05-22T21:44:14.270Z,13.27
2023-05-22T21:47:17.012Z,6.85
2023-05-22T21:50:19.572Z,6.13
2023-05-22T21:53:22.241Z,6.35
2023-05-22T21:56:24.775Z,6.50
2023-05-22T21:59:27.308Z,6.40
2023-05-22T22:02:30.028Z,6.30
2023-05-22T22:05:32.958Z,6.07
2023-05-22T22:08:35.574Z,6.28
2023-05-22T22:11:38.162Z,6.78
2023-05-22T22:14:41.094Z,6.78
2023-05-22T22:17:43.985Z,6.53
2023-05-22T22:20:46.915Z,6.57
2023-05-22T22:23:49.681Z,6.55
2023-05-22T22:26:52.960Z,6.22
2023-05-22T22:29:56.355Z,6.72
2023-05-22T22:32:58.990Z,7.90
2023-05-22T22:36:02.533Z,8.07
2023-05-22T22:39:05.725Z,7.55
2023-05-22T22:42:08.338Z,7.88
2023-05-22T22:45:10.989Z,8.15
2023-05-22T22:48:13.554Z,8.43
2023-05-22T22:51:18.121Z,8.90
2023-05-22T22:54:21.122Z,8.40
2023-05-22T22:57:23.797Z,10.13
2023-05-22T23:00:27.867Z,10.10
2023-05-22T23:03:30.366Z,9.60
2023-05-22T23:06:34.675Z,9.38
2023-05-22T23:12:42.257Z,8.63
2023-05-22T23:15:45.088Z,8.88
2023-05-22T23:18:47.726Z,9.85
2023-05-22T23:21:52.002Z,9.07
2023-05-22T23:24:54.618Z,11.20
2023-05-22T23:27:57.166Z,9.93
2023-05-22T23:30:59.934Z,8.60
2023-05-22T23:34:02.601Z,8.73
2023-05-22T23:37:05.369Z,9.10
2023-05-22T23:40:08.936Z,8.30
2023-05-22T23:43:11.602Z,7.15
2023-05-22T23:46:14.229Z,7.30
2023-05-22T23:49:18.132Z,8.00
2023-05-22T23:52:21.172Z,7.70
2023-05-22T23:55:23.778Z,8.95
2023-05-22T23:58:29.614Z,9.00
